sensor_id;sensor_type;location;lat;lon;timestamp;pressure;altitude;pressure_sealevel;temperature;humidity
43770;BME280;6597;52.218;9.882;2022-11-13T00:02:03;102118.59;;;3.33;100.00
43770;BME280;6597;52.218;9.882;2022-11-13T00:04:49;102128.94;;;3.31;100.00
43770;BME280;6597;52.218;9.882;2022-11-13T00:07:35;102119.38;;;3.29;100.00
43770;BME280;6597;52.218;9.882;2022-11-13T00:10:20;102117.53;;;3.23;100.00
43770;BME280;6597;52.218;9.882;2022-11-13T00:13:06;102115.78;;;3.22;100.00
43770;BME280;6597;52.218;9.882;2022-11-13T00:15:55;102110.56;;;3.21;100.00
43770;BME280;6597;52.218;9.882;2022-11-13T00:18:41;102111.44;;;3.21;100.00
43770;BME280;6597;52.218;9.882;2022-11-13T00:21:26;102101.03;;;3.20;100.00
43770;BME280;6597;52.218;9.882;2022-11-13T00:24:13;102108.84;;;3.21;100.00
43770;BME280;6597;52.218;9.882;2022-11-13T00:26:58;102102.75;;;3.19;100.00
43770;BME280;6597;52.218;9.882;2022-11-13T00:29:43;102105.25;;;3.13;100.00
43770;BME280;6597;52.218;9.882;2022-11-13T00:32:28;102094.00;;;3.11;100.00
43770;BME280;6597;52.218;9.882;2022-11-13T00:35:14;102100.00;;;3.08;100.00
43770;BME280;6597;52.218;9.882;2022-11-13T00:37:59;102104.34;;;3.09;100.00
43770;BME280;6597;52.218;9.882;2022-11-13T00:40:46;102094.75;;;3.04;100.00
43770;BME280;6597;52.218;9.882;2022-11-13T00:43:31;102086.94;;;3.02;100.00
43770;BME280;6597;52.218;9.882;2022-11-13T00:46:16;102094.72;;;3.02;100.00
43770;BME280;6597;52.218;9.882;2022-11-13T00:49:01;102091.22;;;3.00;100.00
43770;BME280;6597;52.218;9.882;2022-11-13T00:51:47;102091.19;;;2.97;100.00
43770;BME280;6597;52.218;9.882;2022-11-13T00:54:32;102088.56;;;2.96;100.00
43770;BME280;6597;52.218;9.882;2022-11-13T00:57:18;102093.78;;;2.97;100.00
43770;BME280;6597;52.218;9.882;2022-11-13T01:00:05;102085.94;;;2.94;100.00
43770;BME280;6597;52.218;9.882;2022-11-13T01:02:50;102079.78;;;2.89;100.00
43770;BME280;6597;52.218;9.882;2022-11-13T01:05:36;102075.41;;;2.87;100.00
43770;BME280;6597;52.218;9.882;2022-11-13T01:08:21;102078.91;;;2.89;100.00
43770;BME280;6597;52.218;9.882;2022-11-13T01:11:08;102075.31;;;2.82;100.00
43770;BME280;6597;52.218;9.882;2022-11-13T01:13:56;102072.69;;;2.79;100.00
43770;BME280;6597;52.218;9.882;2022-11-13T01:16:41;102078.75;;;2.79;100.00
43770;BME280;6597;52.218;9.882;2022-11-13T01:19:26;102079.53;;;2.75;100.00
43770;BME280;6597;52.218;9.882;2022-11-13T01:22:11;102074.31;;;2.74;100.00
43770;BME280;6597;52.218;9.882;2022-11-13T01:24:56;102071.69;;;2.71;100.00
43770;BME280;6597;52.218;9.882;2022-11-13T01:27:42;102072.56;;;2.71;100.00
43770;BME280;6597;52.218;9.882;2022-11-13T01:30:28;102079.44;;;2.69;100.00
43770;BME280;6597;52.218;9.882;2022-11-13T01:33:13;102069.03;;;2.68;100.00
43770;BME280;6597;52.218;9.882;2022-11-13T01:36:00;102071.59;;;2.66;100.00
43770;BME280;6597;52.218;9.882;2022-11-13T01:38:46;102070.59;;;2.60;100.00
43770;BME280;6597;52.218;9.882;2022-11-13T01:41:32;102061.13;;;2.60;100.00
43770;BME280;6597;52.218;9.882;2022-11-13T01:44:18;102065.38;;;2.58;100.00
43770;BME280;6597;52.218;9.882;2022-11-13T01:47:05;102062.81;;;2.60;100.00
43770;BME280;6597;52.218;9.882;2022-11-13T01:49:52;102050.66;;;2.57;100.00
43770;BME280;6597;52.218;9.882;2022-11-13T01:52:40;102052.38;;;2.55;100.00
43770;BME280;6597;52.218;9.882;2022-11-13T01:55:26;102052.25;;;2.49;100.00
43770;BME280;6597;52.218;9.882;2022-11-13T01:58:12;102047.00;;;2.46;100.00
43770;BME280;6597;52.218;9.882;2022-11-13T02:00:57;102047.78;;;2.40;100.00
43770;BME280;6597;52.218;9.882;2022-11-13T02:03:45;102046.00;;;2.38;100.00
43770;BME280;6597;52.218;9.882;2022-11-13T02:06:33;102042.47;;;2.34;100.00
43770;BME280;6597;52.218;9.882;2022-11-13T02:09:22;102038.16;;;2.33;100.00
43770;BME280;6597;52.218;9.882;2022-11-13T02:12:10;102037.22;;;2.30;100.00
43770;BME280;6597;52.218;9.882;2022-11-13T02:14:57;102027.63;;;2.26;100.00
43770;BME280;6597;52.218;9.882;2022-11-13T02:17:47;102025.81;;;2.22;100.00
43770;BME280;6597;52.218;9.882;2022-11-13T02:20:37;102028.34;;;2.18;100.00
43770;BME280;6597;52.218;9.882;2022-11-13T02:23:30;102023.13;;;2.17;100.00
43770;BME280;6597;52.218;9.882;2022-11-13T02:26:21;102030.03;;;2.16;100.00
43770;BME280;6597;52.218;9.882;2022-11-13T02:29:07;102038.66;;;2.15;100.00
43770;BME280;6597;52.218;9.882;2022-11-13T02:31:52;102033.44;;;2.14;100.00
43770;BME280;6597;52.218;9.882;2022-11-13T02:34:38;102031.69;;;2.13;100.00
43770;BME280;6597;52.218;9.882;2022-11-13T02:37:23;102041.97;;;2.08;100.00
43770;BME280;6597;52.218;9.882;2022-11-13T02:40:09;102038.41;;;2.03;100.00
43770;BME280;6597;52.218;9.882;2022-11-13T02:42:55;102040.94;;;2.00;100.00
43770;BME280;6597;52.218;9.882;2022-11-13T02:45:41;102036.59;;;1.99;100.00
43770;BME280;6597;52.218;9.882;2022-11-13T02:48:26;102048.56;;;1.94;100.00
43770;BME280;6597;52.218;9.882;2022-11-13T02:51:11;102045.16;;;1.95;100.00
43770;BME280;6597;52.218;9.882;2022-11-13T02:53:56;102036.44;;;1.92;100.00
43770;BME280;6597;52.218;9.882;2022-11-13T02:56:42;102043.25;;;1.88;100.00
43770;BME280;6597;52.218;9.882;2022-11-13T02:59:28;102044.09;;;1.87;100.00
43770;BME280;6597;52.218;9.882;2022-11-13T03:02:14;102032.81;;;1.83;100.00
43770;BME280;6597;52.218;9.882;2022-11-13T03:04:59;102035.44;;;1.85;100.00
43770;BME280;6597;52.218;9.882;2022-11-13T03:07:44;102031.06;;;1.82;100.00
43770;BME280;6597;52.218;9.882;2022-11-13T03:10:29;102033.63;;;1.81;100.00
43770;BME280;6597;52.218;9.882;2022-11-13T03:13:14;102030.13;;;1.79;100.00
43770;BME280;6597;52.218;9.882;2022-11-13T03:16:06;102015.38;;;1.75;100.00
43770;BME280;6597;52.218;9.882;2022-11-13T03:18:51;102015.38;;;1.75;100.00
43770;BME280;6597;52.218;9.882;2022-11-13T03:21:36;102024.84;;;1.73;100.00
43770;BME280;6597;52.218;9.882;2022-11-13T03:24:21;102017.00;;;1.70;100.00
43770;BME280;6597;52.218;9.882;2022-11-13T03:27:06;102016.03;;;1.65;100.00
43770;BME280;6597;52.218;9.882;2022-11-13T03:29:51;102019.47;;;1.64;100.00
43770;BME280;6597;52.218;9.882;2022-11-13T03:32:38;102011.72;;;1.65;100.00
43770;BME280;6597;52.218;9.882;2022-11-13T03:35:23;102009.97;;;1.64;100.00
43770;BME280;6597;52.218;9.882;2022-11-13T03:38:09;102010.84;;;1.65;100.00
43770;BME280;6597;52.218;9.882;2022-11-13T03:40:54;102011.75;;;1.67;100.00
43770;BME280;6597;52.218;9.882;2022-11-13T03:43:39;102009.16;;;1.67;100.00
43770;BME280;6597;52.218;9.882;2022-11-13T03:46:24;102002.19;;;1.63;100.00
43770;BME280;6597;52.218;9.882;2022-11-13T03:49:11;102006.44;;;1.61;100.00
43770;BME280;6597;52.218;9.882;2022-11-13T03:51:56;101996.91;;;1.60;100.00
43770;BME280;6597;52.218;9.882;2022-11-13T03:54:41;101988.47;;;1.67;100.00
43770;BME280;6597;52.218;9.882;2022-11-13T03:57:26;101996.88;;;1.58;100.00
43770;BME280;6597;52.218;9.882;2022-11-13T04:00:13;101991.69;;;1.56;100.00
43770;BME280;6597;52.218;9.882;2022-11-13T04:02:58;101996.88;;;1.58;100.00
43770;BME280;6597;52.218;9.882;2022-11-13T04:05:46;102000.28;;;1.55;100.00
43770;BME280;6597;52.218;9.882;2022-11-13T04:08:32;102000.13;;;1.48;100.00
43770;BME280;6597;52.218;9.882;2022-11-13T04:11:17;101987.16;;;1.46;100.00
43770;BME280;6597;52.218;9.882;2022-11-13T04:14:02;101992.28;;;1.45;100.00
43770;BME280;6597;52.218;9.882;2022-11-13T04:16:47;101992.22;;;1.42;100.00
43770;BME280;6597;52.218;9.882;2022-11-13T04:19:33;101981.00;;;1.41;100.00
43770;BME280;6597;52.218;9.882;2022-11-13T04:22:19;101989.69;;;1.43;100.00
43770;BME280;6597;52.218;9.882;2022-11-13T04:25:05;101987.88;;;1.39;100.00
43770;BME280;6597;52.218;9.882;2022-11-13T04:27:52;101983.50;;;1.37;100.00
43770;BME280;6597;52.218;9.882;2022-11-13T04:30:37;101981.75;;;1.36;100.00
43770;BME280;6597;52.218;9.882;2022-11-13T04:33:22;101973.16;;;1.37;100.00
43770;BME280;6597;52.218;9.882;2022-11-13T04:36:07;101982.69;;;1.39;100.00
43770;BME280;6597;52.218;9.882;2022-11-13T04:38:54;101972.31;;;1.38;100.00
43770;BME280;6597;52.218;9.882;2022-11-13T04:41:39;101968.84;;;1.37;100.00
43770;BME280;6597;52.218;9.882;2022-11-13T04:44:42;101971.41;;;1.36;100.00
43770;BME280;6597;52.218;9.882;2022-11-13T04:47:27;101967.03;;;1.33;100.00
43770;BME280;6597;52.218;9.882;2022-11-13T04:50:14;101963.47;;;1.30;100.00
43770;BME280;6597;52.218;9.882;2022-11-13T04:52:59;101957.41;;;1.28;100.00
43770;BME280;6597;52.218;9.882;2022-11-13T04:55:46;101967.66;;;1.23;100.00
43770;BME280;6597;52.218;9.882;2022-11-13T04:58:31;101965.06;;;1.23;100.00
43770;BME280;6597;52.218;9.882;2022-11-13T05:01:16;101959.03;;;1.22;100.00
43770;BME280;6597;52.218;9.882;2022-11-13T05:04:01;101972.06;;;1.27;100.00
43770;BME280;6597;52.218;9.882;2022-11-13T05:06:47;101958.09;;;1.19;100.00
43770;BME280;6597;52.218;9.882;2022-11-13T05:09:32;101946.00;;;1.18;100.00
43770;BME280;6597;52.218;9.882;2022-11-13T05:12:19;101950.31;;;1.19;100.00
43770;BME280;6597;52.218;9.882;2022-11-13T05:15:05;101938.91;;;1.09;100.00
43770;BME280;6597;52.218;9.882;2022-11-13T05:17:51;101942.31;;;1.07;100.00
43770;BME280;6597;52.218;9.882;2022-11-13T05:20:37;101942.25;;;1.04;100.00
43770;BME280;6597;52.218;9.882;2022-11-13T05:23:22;101941.41;;;1.05;100.00
43770;BME280;6597;52.218;9.882;2022-11-13T05:26:09;101927.56;;;1.03;100.00
43770;BME280;6597;52.218;9.882;2022-11-13T05:28:57;101937.84;;;1.00;100.00
43770;BME280;6597;52.218;9.882;2022-11-13T05:31:42;101936.97;;;0.99;100.00
43770;BME280;6597;52.218;9.882;2022-11-13T05:34:27;101934.25;;;0.94;100.00
43770;BME280;6597;52.218;9.882;2022-11-13T05:37:13;101935.84;;;0.89;100.00
43770;BME280;6597;52.218;9.882;2022-11-13T05:39:58;101937.53;;;0.87;100.00
43770;BME280;6597;52.218;9.882;2022-11-13T05:42:43;101934.84;;;0.83;100.00
43770;BME280;6597;52.218;9.882;2022-11-13T05:45:29;101938.19;;;0.79;100.00
43770;BME280;6597;52.218;9.882;2022-11-13T05:48:15;101926.94;;;0.77;100.00
43770;BME280;6597;52.218;9.882;2022-11-13T05:51:00;101932.97;;;0.76;100.00
43770;BME280;6597;52.218;9.882;2022-11-13T05:53:46;101926.09;;;0.76;100.00
43770;BME280;6597;52.218;9.882;2022-11-13T05:56:33;101926.19;;;0.81;100.00
43770;BME280;6597;52.218;9.882;2022-11-13T05:59:18;101921.09;;;0.84;100.00
43770;BME280;6597;52.218;9.882;2022-11-13T06:02:04;101922.88;;;0.86;100.00
43770;BME280;6597;52.218;9.882;2022-11-13T06:04:50;101916.97;;;0.92;100.00
43770;BME280;6597;52.218;9.882;2022-11-13T06:07:35;101911.81;;;0.93;100.00
43770;BME280;6597;52.218;9.882;2022-11-13T06:10:20;101912.69;;;0.94;100.00
43770;BME280;6597;52.218;9.882;2022-11-13T06:13:05;101913.56;;;0.94;100.00
43770;BME280;6597;52.218;9.882;2022-11-13T06:15:50;101907.72;;;1.02;100.00
43770;BME280;6597;52.218;9.882;2022-11-13T06:18:37;101894.94;;;1.09;100.00
43770;BME280;6597;52.218;9.882;2022-11-13T06:21:25;101887.28;;;1.14;100.00
43770;BME280;6597;52.218;9.882;2022-11-13T06:24:11;101896.06;;;1.22;100.00
43770;BME280;6597;52.218;9.882;2022-11-13T06:26:57;101875.34;;;1.20;100.00
43770;BME280;6597;52.218;9.882;2022-11-13T06:29:42;101866.72;;;1.20;100.00
43770;BME280;6597;52.218;9.882;2022-11-13T06:32:27;101876.84;;;1.09;100.00
43770;BME280;6597;52.218;9.882;2022-11-13T06:35:13;101883.69;;;1.07;100.00
43770;BME280;6597;52.218;9.882;2022-11-13T06:37:58;101889.63;;;1.02;100.00
43770;BME280;6597;52.218;9.882;2022-11-13T06:40:44;101887.00;;;1.00;100.00
43770;BME280;6597;52.218;9.882;2022-11-13T06:43:29;101898.00;;;0.91;100.00
43770;BME280;6597;52.218;9.882;2022-11-13T06:46:17;101900.59;;;0.93;100.00
43770;BME280;6597;52.218;9.882;2022-11-13T06:49:02;101908.28;;;0.90;100.00
43770;BME280;6597;52.218;9.882;2022-11-13T06:51:49;101902.19;;;0.86;100.00
43770;BME280;6597;52.218;9.882;2022-11-13T06:54:34;101905.78;;;0.93;100.00
43770;BME280;6597;52.218;9.882;2022-11-13T06:57:19;101908.44;;;0.96;100.00
43770;BME280;6597;52.218;9.882;2022-11-13T07:00:06;101909.41;;;1.00;100.00
43770;BME280;6597;52.218;9.882;2022-11-13T07:02:51;101916.28;;;0.99;100.00
43770;BME280;6597;52.218;9.882;2022-11-13T07:05:36;101913.81;;;1.05;100.00
43770;BME280;6597;52.218;9.882;2022-11-13T07:08:22;101913.03;;;1.08;100.00
43770;BME280;6597;52.218;9.882;2022-11-13T07:11:09;101908.78;;;1.11;100.00
43770;BME280;6597;52.218;9.882;2022-11-13T07:13:54;101912.25;;;1.12;100.00
43770;BME280;6597;52.218;9.882;2022-11-13T07:16:40;101908.06;;;1.18;100.00
43770;BME280;6597;52.218;9.882;2022-11-13T07:19:25;101903.19;;;1.31;100.00
43770;BME280;6597;52.218;9.882;2022-11-13T07:22:10;101909.63;;;1.51;100.00
43770;BME280;6597;52.218;9.882;2022-11-13T07:24:56;101905.81;;;2.24;100.00
43770;BME280;6597;52.218;9.882;2022-11-13T07:27:43;101904.13;;;2.79;100.00
43770;BME280;6597;52.218;9.882;2022-11-13T07:30:28;101914.97;;;3.09;100.00
43770;BME280;6597;52.218;9.882;2022-11-13T07:33:14;101899.75;;;3.35;100.00
43770;BME280;6597;52.218;9.882;2022-11-13T07:35:59;101914.97;;;3.78;100.00
43770;BME280;6597;52.218;9.882;2022-11-13T07:38:44;101909.56;;;4.44;100.00
43770;BME280;6597;52.218;9.882;2022-11-13T07:41:31;101899.66;;;5.16;100.00
43770;BME280;6597;52.218;9.882;2022-11-13T07:44:17;101899.78;;;5.43;92.78
43770;BME280;6597;52.218;9.882;2022-11-13T07:47:02;101894.56;;;5.42;91.36
43770;BME280;6597;52.218;9.882;2022-11-13T07:49:47;101898.03;;;5.39;89.42
43770;BME280;6597;52.218;9.882;2022-11-13T07:52:32;101886.78;;;5.49;87.86
43770;BME280;6597;52.218;9.882;2022-11-13T07:55:18;101891.22;;;5.79;87.95
43770;BME280;6597;52.218;9.882;2022-11-13T07:58:04;101893.94;;;6.16;85.41
43770;BME280;6597;52.218;9.882;2022-11-13T08:00:49;101889.59;;;6.77;83.66
43770;BME280;6597;52.218;9.882;2022-11-13T08:03:34;101872.91;;;7.38;79.59
43770;BME280;6597;52.218;9.882;2022-11-13T08:06:19;101881.00;;;8.40;76.67
43770;BME280;6597;52.218;9.882;2022-11-13T08:09:06;101875.72;;;9.32;72.16
43770;BME280;6597;52.218;9.882;2022-11-13T08:11:52;101869.69;;;9.92;68.24
43770;BME280;6597;52.218;9.882;2022-11-13T08:14:38;101871.84;;;10.25;64.47
43770;BME280;6597;52.218;9.882;2022-11-13T08:17:23;101876.69;;;10.50;64.27
43770;BME280;6597;52.218;9.882;2022-11-13T08:20:09;101879.91;;;10.66;62.78
43770;BME280;6597;52.218;9.882;2022-11-13T08:22:55;101880.63;;;10.77;62.58
43770;BME280;6597;52.218;9.882;2022-11-13T08:25:41;101888.66;;;10.66;62.30
43770;BME280;6597;52.218;9.882;2022-11-13T08:28:26;101884.13;;;10.76;61.60
43770;BME280;6597;52.218;9.882;2022-11-13T08:31:14;101876.88;;;10.38;61.58
43770;BME280;6597;52.218;9.882;2022-11-13T08:34:00;101886.66;;;10.28;62.62
43770;BME280;6597;52.218;9.882;2022-11-13T08:36:46;101890.63;;;9.95;63.83
43770;BME280;6597;52.218;9.882;2022-11-13T08:39:31;101881.75;;;10.04;64.72
43770;BME280;6597;52.218;9.882;2022-11-13T08:42:18;101882.84;;;10.49;62.08
43770;BME280;6597;52.218;9.882;2022-11-13T08:45:03;101884.66;;;10.95;61.47
43770;BME280;6597;52.218;9.882;2022-11-13T08:47:50;101872.47;;;11.35;60.60
43770;BME280;6597;52.218;9.882;2022-11-13T08:50:36;101889.28;;;11.68;58.44
43770;BME280;6597;52.218;9.882;2022-11-13T08:53:22;101878.72;;;11.70;57.80
43770;BME280;6597;52.218;9.882;2022-11-13T08:56:06;101889.06;;;11.37;58.62
43770;BME280;6597;52.218;9.882;2022-11-13T08:58:52;101883.53;;;11.08;58.87
43770;BME280;6597;52.218;9.882;2022-11-13T09:01:37;101878.38;;;11.02;60.87
43770;BME280;6597;52.218;9.882;2022-11-13T09:04:24;101871.88;;;11.21;61.28
43770;BME280;6597;52.218;9.882;2022-11-13T09:07:08;101872.69;;;11.25;59.82
43770;BME280;6597;52.218;9.882;2022-11-13T09:09:54;101872.22;;;11.47;60.63
43770;BME280;6597;52.218;9.882;2022-11-13T09:12:39;101881.63;;;11.58;60.26
43770;BME280;6597;52.218;9.882;2022-11-13T09:15:24;101877.00;;;11.69;60.89
43770;BME280;6597;52.218;9.882;2022-11-13T09:18:09;101879.78;;;12.03;61.54
43770;BME280;6597;52.218;9.882;2022-11-13T09:20:59;101880.56;;;12.08;62.76
43770;BME280;6597;52.218;9.882;2022-11-13T09:23:45;101874.88;;;12.60;61.82
43770;BME280;6597;52.218;9.882;2022-11-13T09:26:30;101870.44;;;12.95;60.62
43770;BME280;6597;52.218;9.882;2022-11-13T09:29:16;101870.72;;;13.17;61.14
43770;BME280;6597;52.218;9.882;2022-11-13T09:32:01;101871.19;;;13.62;59.80
43770;BME280;6597;52.218;9.882;2022-11-13T09:34:46;101864.81;;;13.97;58.14
43770;BME280;6597;52.218;9.882;2022-11-13T09:37:33;101861.53;;;13.61;58.74
43770;BME280;6597;52.218;9.882;2022-11-13T09:40:25;101859.66;;;13.66;58.56
43770;BME280;6597;52.218;9.882;2022-11-13T09:43:21;101867.09;;;13.81;57.59
43770;BME280;6597;52.218;9.882;2022-11-13T09:46:14;101865.03;;;13.91;56.41
43770;BME280;6597;52.218;9.882;2022-11-13T09:49:05;101864.47;;;14.09;57.11
43770;BME280;6597;52.218;9.882;2022-11-13T09:51:55;101854.00;;;14.06;56.57
43770;BME280;6597;52.218;9.882;2022-11-13T09:54:42;101851.09;;;14.14;57.27
43770;BME280;6597;52.218;9.882;2022-11-13T09:57:37;101838.69;;;13.89;58.28
43770;BME280;6597;52.218;9.882;2022-11-13T10:00:24;101837.88;;;13.28;59.71
43770;BME280;6597;52.218;9.882;2022-11-13T10:03:20;101840.53;;;12.96;62.67
43770;BME280;6597;52.218;9.882;2022-11-13T10:06:15;101830.09;;;12.60;64.12
43770;BME280;6597;52.218;9.882;2022-11-13T10:09:12;101834.53;;;11.87;66.18
43770;BME280;6597;52.218;9.882;2022-11-13T10:12:04;101825.28;;;11.29;67.92
43770;BME280;6597;52.218;9.882;2022-11-13T10:14:52;101828.03;;;10.80;70.10
43770;BME280;6597;52.218;9.882;2022-11-13T10:17:42;101826.72;;;10.56;71.99
43770;BME280;6597;52.218;9.882;2022-11-13T10:20:31;101817.63;;;10.72;72.11
43770;BME280;6597;52.218;9.882;2022-11-13T10:23:20;101818.63;;;10.67;71.47
43770;BME280;6597;52.218;9.882;2022-11-13T10:26:12;101818.06;;;10.96;71.06
43770;BME280;6597;52.218;9.882;2022-11-13T10:29:07;101824.19;;;11.39;70.05
43770;BME280;6597;52.218;9.882;2022-11-13T10:31:54;101822.63;;;11.71;67.53
43770;BME280;6597;52.218;9.882;2022-11-13T10:34:40;101819.44;;;11.95;66.33
43770;BME280;6597;52.218;9.882;2022-11-13T10:37:43;101813.31;;;12.30;64.81
43770;BME280;6597;52.218;9.882;2022-11-13T10:40:31;101811.63;;;12.28;64.65
43770;BME280;6597;52.218;9.882;2022-11-13T10:43:18;101819.75;;;12.19;65.90
43770;BME280;6597;52.218;9.882;2022-11-13T10:46:05;101818.06;;;12.16;65.30
43770;BME280;6597;52.218;9.882;2022-11-13T10:48:50;101805.94;;;12.44;64.83
43770;BME280;6597;52.218;9.882;2022-11-13T10:51:35;101813.25;;;12.66;64.21
43770;BME280;6597;52.218;9.882;2022-11-13T10:54:24;101814.19;;;12.63;63.65
43770;BME280;6597;52.218;9.882;2022-11-13T10:57:27;101806.97;;;12.39;65.00
43770;BME280;6597;52.218;9.882;2022-11-13T11:00:29;101816.38;;;12.13;64.71
43770;BME280;6597;52.218;9.882;2022-11-13T11:03:18;101802.44;;;12.44;64.56
43770;BME280;6597;52.218;9.882;2022-11-13T11:06:04;101799.16;;;12.34;64.00
43770;BME280;6597;52.218;9.882;2022-11-13T11:08:49;101795.00;;;12.26;63.91
43770;BME280;6597;52.218;9.882;2022-11-13T11:11:35;101787.72;;;12.37;65.01
43770;BME280;6597;52.218;9.882;2022-11-13T11:14:41;101793.03;;;11.98;67.28
43770;BME280;6597;52.218;9.882;2022-11-13T11:17:34;101787.91;;;11.15;69.74
43770;BME280;6597;52.218;9.882;2022-11-13T11:20:36;101787.47;;;10.48;72.84
43770;BME280;6597;52.218;9.882;2022-11-13T11:23:36;101788.72;;;10.27;75.29
43770;BME280;6597;52.218;9.882;2022-11-13T11:26:27;101787.66;;;9.84;77.32
43770;BME280;6597;52.218;9.882;2022-11-13T11:29:17;101785.06;;;9.21;81.48
43770;BME280;6597;52.218;9.882;2022-11-13T11:32:10;101783.53;;;9.01;84.33
43770;BME280;6597;52.218;9.882;2022-11-13T11:35:05;101776.53;;;9.03;86.32
43770;BME280;6597;52.218;9.882;2022-11-13T11:37:58;101777.25;;;9.18;86.61
43770;BME280;6597;52.218;9.882;2022-11-13T11:40:48;101785.69;;;9.38;86.30
43770;BME280;6597;52.218;9.882;2022-11-13T11:43:40;101776.00;;;9.46;86.24
43770;BME280;6597;52.218;9.882;2022-11-13T11:46:27;101776.34;;;9.19;85.44
43770;BME280;6597;52.218;9.882;2022-11-13T11:49:12;101772.38;;;8.89;86.43
43770;BME280;6597;52.218;9.882;2022-11-13T11:52:05;101774.56;;;8.44;88.24
43770;BME280;6597;52.218;9.882;2022-11-13T11:55:03;101772.34;;;8.00;92.08
43770;BME280;6597;52.218;9.882;2022-11-13T11:57:57;101775.16;;;7.74;95.31
43770;BME280;6597;52.218;9.882;2022-11-13T12:00:48;101769.00;;;7.79;97.84
43770;BME280;6597;52.218;9.882;2022-11-13T12:06:59;101759.34;;;7.91;96.75
43770;BME280;6597;52.218;9.882;2022-11-13T12:09:56;101740.16;;;7.92;96.75
43770;BME280;6597;52.218;9.882;2022-11-13T12:12:51;101747.19;;;7.88;97.07
43770;BME280;6597;52.218;9.882;2022-11-13T12:15:46;101741.88;;;7.96;98.52
43770;BME280;6597;52.218;9.882;2022-11-13T12:18:45;101736.38;;;8.25;98.96
43770;BME280;6597;52.218;9.882;2022-11-13T12:21:41;101726.66;;;8.40;96.02
43770;BME280;6597;52.218;9.882;2022-11-13T12:24:50;101724.97;;;8.33;95.31
43770;BME280;6597;52.218;9.882;2022-11-13T12:27:43;101721.69;;;8.10;94.96
43770;BME280;6597;52.218;9.882;2022-11-13T12:30:36;101726.16;;;7.99;96.43
43770;BME280;6597;52.218;9.882;2022-11-13T12:33:33;101725.44;;;7.83;98.20
43770;BME280;6597;52.218;9.882;2022-11-13T12:36:21;101720.34;;;7.63;99.73
43770;BME280;6597;52.218;9.882;2022-11-13T12:39:21;101725.66;;;7.56;100.00
43770;BME280;6597;52.218;9.882;2022-11-13T12:42:19;101718.72;;;7.50;100.00
43770;BME280;6597;52.218;9.882;2022-11-13T12:45:15;101729.25;;;7.35;100.00
43770;BME280;6597;52.218;9.882;2022-11-13T12:48:07;101726.78;;;7.16;100.00
43770;BME280;6597;52.218;9.882;2022-11-13T12:50:57;101724.19;;;7.07;100.00
43770;BME280;6597;52.218;9.882;2022-11-13T12:53:46;101735.53;;;7.02;100.00
43770;BME280;6597;52.218;9.882;2022-11-13T12:56:32;101729.44;;;7.00;100.00
43770;BME280;6597;52.218;9.882;2022-11-13T12:59:30;101729.47;;;6.95;100.00
43770;BME280;6597;52.218;9.882;2022-11-13T13:02:49;101728.66;;;6.87;100.00
43770;BME280;6597;52.218;9.882;2022-11-13T13:06:01;101719.97;;;6.74;100.00
43770;BME280;6597;52.218;9.882;2022-11-13T13:09:04;101715.69;;;6.60;100.00
43770;BME280;6597;52.218;9.882;2022-11-13T13:12:00;101708.72;;;6.65;100.00
43770;BME280;6597;52.218;9.882;2022-11-13T13:15:03;101698.31;;;6.59;100.00
43770;BME280;6597;52.218;9.882;2022-11-13T13:18:03;101707.03;;;6.54;100.00
43770;BME280;6597;52.218;9.882;2022-11-13T13:20:58;101700.09;;;6.52;100.00
43770;BME280;6597;52.218;9.882;2022-11-13T13:23:45;101700.94;;;6.52;100.00
43770;BME280;6597;52.218;9.882;2022-11-13T13:26:31;101700.94;;;6.48;100.00
43770;BME280;6597;52.218;9.882;2022-11-13T13:29:18;101687.03;;;6.46;100.00
43770;BME280;6597;52.218;9.882;2022-11-13T13:32:11;101691.41;;;6.39;100.00
43770;BME280;6597;52.218;9.882;2022-11-13T13:35:06;101682.75;;;6.33;100.00
43770;BME280;6597;52.218;9.882;2022-11-13T13:37:58;101679.25;;;6.37;100.00
43770;BME280;6597;52.218;9.882;2022-11-13T13:40:55;101680.13;;;6.37;100.00
43770;BME280;6597;52.218;9.882;2022-11-13T13:43:55;101675.75;;;6.39;100.00
43770;BME280;6597;52.218;9.882;2022-11-13T13:46:41;101668.81;;;6.35;100.00
43770;BME280;6597;52.218;9.882;2022-11-13T13:49:27;101667.09;;;6.33;100.00
43770;BME280;6597;52.218;9.882;2022-11-13T13:52:14;101660.13;;;6.33;100.00
43770;BME280;6597;52.218;9.882;2022-11-13T13:55:00;101657.53;;;6.33;100.00
43770;BME280;6597;52.218;9.882;2022-11-13T13:57:46;101654.06;;;6.34;100.00
43770;BME280;6597;52.218;9.882;2022-11-13T14:00:32;101649.69;;;6.36;100.00
43770;BME280;6597;52.218;9.882;2022-11-13T14:03:19;101658.41;;;6.35;100.00
43770;BME280;6597;52.218;9.882;2022-11-13T14:06:23;101650.59;;;6.28;100.00
43770;BME280;6597;52.218;9.882;2022-11-13T14:09:15;101661.00;;;6.32;100.00
43770;BME280;6597;52.218;9.882;2022-11-13T14:12:03;101648.81;;;6.36;100.00
43770;BME280;6597;52.218;9.882;2022-11-13T14:14:48;101654.91;;;6.36;100.00
43770;BME280;6597;52.218;9.882;2022-11-13T14:17:33;101657.50;;;6.39;100.00
43770;BME280;6597;52.218;9.882;2022-11-13T14:20:19;101654.88;;;6.45;100.00
43770;BME280;6597;52.218;9.882;2022-11-13T14:23:04;101647.91;;;6.44;100.00
43770;BME280;6597;52.218;9.882;2022-11-13T14:25:51;101640.13;;;6.37;100.00
43770;BME280;6597;52.218;9.882;2022-11-13T14:28:43;101648.78;;;6.45;100.00
43770;BME280;6597;52.218;9.882;2022-11-13T14:31:32;101647.91;;;6.44;100.00
43770;BME280;6597;52.218;9.882;2022-11-13T14:34:20;101642.69;;;6.46;100.00
43770;BME280;6597;52.218;9.882;2022-11-13T14:37:16;101643.53;;;6.49;100.00
43770;BME280;6597;52.218;9.882;2022-11-13T14:40:04;101642.72;;;6.50;100.00
43770;BME280;6597;52.218;9.882;2022-11-13T14:42:53;101638.34;;;6.54;100.00
43770;BME280;6597;52.218;9.882;2022-11-13T14:45:51;101635.72;;;6.55;100.00
43770;BME280;6597;52.218;9.882;2022-11-13T14:48:37;101631.38;;;6.53;100.00
43770;BME280;6597;52.218;9.882;2022-11-13T14:51:24;101640.97;;;6.46;100.00
43770;BME280;6597;52.218;9.882;2022-11-13T14:54:28;101637.53;;;6.35;100.00
43770;BME280;6597;52.218;9.882;2022-11-13T14:57:14;101634.94;;;6.32;100.00